Christina O — C6FN7 — position and weather

sailwx.info

Track history (hours):
 
Tides and Currents Weather Stations Pressure Air Temp Water Temp Dewpoint Dewpoint Depression Visibility Wind Speed Wind Dir Waves Ship Positions

Christina O

Operator: V Ships Leisure SAM

Last reported at 2017-Apr-28 01:57 UTC. Time now 2017-Apr-28 02:22 UTC.
Position N 36°34' E 015°15'.

Length 186 m; draft 6.1 m.

Type: Passenger vessel. MMSI: 308322000.

Date/timePositionNaut miles runAvg speedWind from/ knotsBaromVisibWave heightAir tempDewpointWater temp
2017-Apr-28 01:57N 36°34' E 015°15'511.3
2017-Apr-28 01:30N 36°30' E 015°11'611.1
2017-Apr-28 01:00N 36°26' E 015°07'611.0
2017-Apr-28 00:30N 36°22' E 015°02'611.2
2017-Apr-28 00:00N 36°18' E 014°57'611.2
2017-Apr-27 23:30N 36°14' E 014°53'611.1
2017-Apr-27 23:00N 36°10' E 014°48'611.0
2017-Apr-27 22:30N 36°05' E 014°44'611.1
2017-Apr-27 22:00N 36°01' E 014°39'611.2
2017-Apr-27 21:30N 35°57' E 014°35'5 7.0
2017-Apr-27 20:50N 35°54' E 014°31'0 0.0
2017-Apr-27 20:26N 35°54' E 014°31'0 0.0
2017-Apr-27 19:50N 35°54' E 014°31'0 0.0
2017-Apr-27 18:56N 35°54' E 014°31'0 0.0
2017-Apr-27 17:32N 35°54' E 014°31'0 0.0
2017-Apr-27 17:08N 35°54' E 014°31'0 0.0
2017-Apr-27 16:02N 35°54' E 014°31'0 0.0
2017-Apr-27 15:56N 35°54' E 014°31'0 0.0
2017-Apr-27 15:26N 35°54' E 014°31'0 0.0
2017-Apr-27 14:56N 35°54' E 014°31'0 0.0
2017-Apr-27 13:02N 35°54' E 014°31'0 0.0
2017-Apr-27 12:47N 35°54' E 014°31'0 0.0
2017-Apr-27 12:26N 35°54' E 014°31'0 0.0
2017-Apr-27 11:02N 35°54' E 014°31'0 0.0
2017-Apr-27 10:56N 35°54' E 014°31'0 0.0
2017-Apr-27 10:08N 35°54' E 014°31'0 0.0
2017-Apr-27 09:50N 35°54' E 014°31'0 0.0
2017-Apr-27 08:44N 35°54' E 014°31'0 0.0
2017-Apr-27 08:26N 35°54' E 014°31'0 0.0
2017-Apr-27 07:26N 35°54' E 014°31'0 0.0
2017-Apr-27 06:56N 35°54' E 014°31'0 0.0
2017-Apr-27 06:14N 35°54' E 014°31'0 0.0
2017-Apr-27 05:56N 35°54' E 014°31'0 0.5
2017-Apr-27 05:26N 35°53' E 014°31'2 4.3
2017-Apr-27 05:00N 35°55' E 014°32'510.1
2017-Apr-27 04:30N 35°56' E 014°38'510.6
2017-Apr-27 04:00N 35°57' E 014°45'611.2
2017-Apr-27 03:30N 35°57' E 014°52'510.5
2017-Apr-27 03:00N 35°57' E 014°58'510.4
2017-Apr-27 02:30N 35°57' E 015°05'510.6
2017-Apr-27 02:00N 35°58' E 015°11'510.8
2017-Apr-27 01:30N 35°58' E 015°18'510.7
2017-Apr-27 01:00N 35°58' E 015°24'510.6
2017-Apr-27 00:30N 35°59' E 015°31'510.7
2017-Apr-27 00:00N 35°59' E 015°37'510.5
2017-Apr-26 23:30N 35°59' E 015°44'510.6
2017-Apr-26 23:00N 35°60' E 015°50'510.4
2017-Apr-26 22:30N 36°00' E 015°57'612.1
2017-Apr-26 22:00N 36°00' E 016°04'712.9
2017-Apr-26 21:30N 36°01' E 016°12'813.0
2017-Apr-26 20:51N 36°01' E 016°23'413.0
2017-Apr-26 20:30N 36°02' E 016°28'713.0
2017-Apr-26 19:59N 36°02' E 016°37'613.1
2017-Apr-26 19:30N 36°02' E 016°44'813.2
2017-Apr-26 18:55N 36°03' E 016°54'613.2
2017-Apr-26 18:29N 36°03' E 017°01'613.0
2017-Apr-26 18:00N 36°03' E 017°09'3613.4
2017-Apr-26 15:21N 36°06' E 017°53'513.9
2017-Apr-26 15:00N 36°06' E 017°59'2513.7
2017-Apr-26 13:10N 36°07' E 018°30'713.9
2017-Apr-26 12:38N 36°08' E 018°39'21810.7
2017-Apr-25 16:13N 37°21' E 022°55'613.4
2017-Apr-25 15:45N 37°27' E 022°50'8 0.6
2017-Apr-25 04:08N 37°34' E 022°47'3 8.3
2017-Apr-25 03:46N 37°31' E 022°47'412.8
2017-Apr-25 03:26N 37°27' E 022°50'713.0
2017-Apr-25 02:54N 37°21' E 022°55'513.1
2017-Apr-25 02:30N 37°17' E 022°58'813.6
2017-Apr-25 01:54N 37°11' E 023°05'613.4
2017-Apr-25 01:27N 37°09' E 023°12'613.3
2017-Apr-25 01:00N 37°10' E 023°19'713.1
2017-Apr-25 00:30N 37°11' E 023°27'812.8
2017-Apr-24 23:52N 37°15' E 023°36'912.6
2017-Apr-24 23:08N 37°24' E 023°40'213.2
2017-Apr-24 23:00N 37°25' E 023°41'713.1
2017-Apr-24 22:30N 37°32' E 023°41'613.1
2017-Apr-24 22:00N 37°38' E 023°42'612.7
2017-Apr-24 21:30N 37°44' E 023°39'612.5
2017-Apr-24 21:00N 37°50' E 023°37'611.8
2017-Apr-24 20:31N 37°56' E 023°37'1 1.4
2017-Apr-24 19:58N 37°56' E 023°38'0 0.0
2017-Apr-24 19:28N 37°56' E 023°38'0 0.0
2017-Apr-24 18:58N 37°56' E 023°38'0 0.0
2017-Apr-24 18:28N 37°56' E 023°38'0 0.0
2017-Apr-24 17:58N 37°56' E 023°38'0 0.0
2017-Apr-24 17:28N 37°56' E 023°38'0 0.0
2017-Apr-24 16:58N 37°56' E 023°38'0 0.0
2017-Apr-24 16:28N 37°56' E 023°38'0 0.0
2017-Apr-24 15:58N 37°56' E 023°38'0 0.0
2017-Apr-24 15:28N 37°56' E 023°38'0 0.0
2017-Apr-24 14:58N 37°56' E 023°38'0 0.0
2017-Apr-24 14:28N 37°56' E 023°38'0 0.0
2017-Apr-24 13:28N 37°56' E 023°38'0 0.0
2017-Apr-24 12:58N 37°56' E 023°38'0 0.0
2017-Apr-24 12:28N 37°56' E 023°38'0 0.0
2017-Apr-24 11:58N 37°56' E 023°38'0 0.0
2017-Apr-24 11:28N 37°56' E 023°38'0 0.0
2017-Apr-24 10:58N 37°56' E 023°38'0 0.0
2017-Apr-24 10:28N 37°56' E 023°38'0 0.0
2017-Apr-24 09:58N 37°56' E 023°38'0 0.0
2017-Apr-24 09:28N 37°56' E 023°38'0 0.0
2017-Apr-24 08:58N 37°56' E 023°38'0 0.0
2017-Apr-24 08:28N 37°56' E 023°38'0 0.0
2017-Apr-24 07:58N 37°56' E 023°38'0 0.0
2017-Apr-24 07:28N 37°56' E 023°38'0 0.0
2017-Apr-24 07:00N 37°56' E 023°38'0 0.0
2017-Apr-24 06:30N 37°56' E 023°38'0 0.0
2017-Apr-24 06:00N 37°56' E 023°38'0 0.0
2017-Apr-24 05:30N 37°56' E 023°38'0 0.0
2017-Apr-24 05:00N 37°56' E 023°38'0 0.0
2017-Apr-24 04:30N 37°56' E 023°38'0 0.0
2017-Apr-24 04:00N 37°56' E 023°38'1 1.2
2017-Apr-24 03:31N 37°56' E 023°37'2 3.6
2017-Apr-24 03:01N 37°55' E 023°37'611.7
2017-Apr-24 02:30N 37°50' E 023°40'714.7
2017-Apr-24 02:01N 37°43' E 023°44'816.3
2017-Apr-24 01:30N 37°35' E 023°47'816.8
2017-Apr-24 01:00N 37°27' E 023°51'917.4
2017-Apr-24 00:31N 37°19' E 023°55'1017.0
2017-Apr-23 23:57N 37°10' E 023°59'457 9.9
2017-Apr-22 01:37N 31°41' E 030°24'215.5
2017-Apr-22 01:30N 31°41' E 030°26'3015.6
2017-Apr-21 23:37N 31°46' E 031°00'415.7
2017-Apr-21 23:23N 31°46' E 031°04'3115.7
2017-Apr-21 21:25N 31°47' E 031°41'815.9
2017-Apr-21 20:55N 31°46' E 031°50'815.4
2017-Apr-21 20:26N 31°45' E 031°59'716.0
2017-Apr-21 20:00N 31°40' E 032°04'816.0
2017-Apr-21 19:30N 31°34' E 032°11'815.8
2017-Apr-21 19:00N 31°30' E 032°18'814.8
2017-Apr-21 18:28N 31°22' E 032°22'612.3
2017-Apr-21 18:00N 31°17' E 032°20'  
Track history (hours):
 
Tides and Currents Weather Stations Pressure Air Temp Water Temp Dewpoint Dewpoint Depression Visibility Wind Speed Wind Dir Waves Ship Positions

Christina O

Operator: V Ships Leisure SAM

Last reported at 2017-Apr-28 01:57 UTC. Time now 2017-Apr-28 02:22 UTC.
Position N 36°34' E 015°15'.

Length 186 m; draft 6.1 m.

Type: Passenger vessel. MMSI: 308322000.

Date/timePositionNaut miles runAvg speedWind from/ knotsBaromVisibWave heightAir tempDewpointWater temp
2017-Apr-28 01:57N 36°34' E 015°15'511.3
2017-Apr-28 01:30N 36°30' E 015°11'611.1
2017-Apr-28 01:00N 36°26' E 015°07'611.0
2017-Apr-28 00:30N 36°22' E 015°02'611.2
2017-Apr-28 00:00N 36°18' E 014°57'611.2
2017-Apr-27 23:30N 36°14' E 014°53'611.1
2017-Apr-27 23:00N 36°10' E 014°48'611.0
2017-Apr-27 22:30N 36°05' E 014°44'611.1
2017-Apr-27 22:00N 36°01' E 014°39'611.2
2017-Apr-27 21:30N 35°57' E 014°35'5 7.0
2017-Apr-27 20:50N 35°54' E 014°31'0 0.0
2017-Apr-27 20:26N 35°54' E 014°31'0 0.0
2017-Apr-27 19:50N 35°54' E 014°31'0 0.0
2017-Apr-27 18:56N 35°54' E 014°31'0 0.0
2017-Apr-27 17:32N 35°54' E 014°31'0 0.0
2017-Apr-27 17:08N 35°54' E 014°31'0 0.0
2017-Apr-27 16:02N 35°54' E 014°31'0 0.0
2017-Apr-27 15:56N 35°54' E 014°31'0 0.0
2017-Apr-27 15:26N 35°54' E 014°31'0 0.0
2017-Apr-27 14:56N 35°54' E 014°31'0 0.0
2017-Apr-27 13:02N 35°54' E 014°31'0 0.0
2017-Apr-27 12:47N 35°54' E 014°31'0 0.0
2017-Apr-27 12:26N 35°54' E 014°31'0 0.0
2017-Apr-27 11:02N 35°54' E 014°31'0 0.0
2017-Apr-27 10:56N 35°54' E 014°31'0 0.0
2017-Apr-27 10:08N 35°54' E 014°31'0 0.0
2017-Apr-27 09:50N 35°54' E 014°31'0 0.0
2017-Apr-27 08:44N 35°54' E 014°31'0 0.0
2017-Apr-27 08:26N 35°54' E 014°31'0 0.0
2017-Apr-27 07:26N 35°54' E 014°31'0 0.0
2017-Apr-27 06:56N 35°54' E 014°31'0 0.0
2017-Apr-27 06:14N 35°54' E 014°31'0 0.0
2017-Apr-27 05:56N 35°54' E 014°31'0 0.5
2017-Apr-27 05:26N 35°53' E 014°31'2 4.3
2017-Apr-27 05:00N 35°55' E 014°32'510.1
2017-Apr-27 04:30N 35°56' E 014°38'510.6
2017-Apr-27 04:00N 35°57' E 014°45'611.2
2017-Apr-27 03:30N 35°57' E 014°52'510.5
2017-Apr-27 03:00N 35°57' E 014°58'510.4
2017-Apr-27 02:30N 35°57' E 015°05'510.6
2017-Apr-27 02:00N 35°58' E 015°11'510.8
2017-Apr-27 01:30N 35°58' E 015°18'510.7
2017-Apr-27 01:00N 35°58' E 015°24'510.6
2017-Apr-27 00:30N 35°59' E 015°31'510.7
2017-Apr-27 00:00N 35°59' E 015°37'510.5
2017-Apr-26 23:30N 35°59' E 015°44'510.6
2017-Apr-26 23:00N 35°60' E 015°50'510.4
2017-Apr-26 22:30N 36°00' E 015°57'612.1
2017-Apr-26 22:00N 36°00' E 016°04'712.9
2017-Apr-26 21:30N 36°01' E 016°12'813.0
2017-Apr-26 20:51N 36°01' E 016°23'413.0
2017-Apr-26 20:30N 36°02' E 016°28'713.0
2017-Apr-26 19:59N 36°02' E 016°37'613.1
2017-Apr-26 19:30N 36°02' E 016°44'813.2
2017-Apr-26 18:55N 36°03' E 016°54'613.2
2017-Apr-26 18:29N 36°03' E 017°01'613.0
2017-Apr-26 18:00N 36°03' E 017°09'3613.4
2017-Apr-26 15:21N 36°06' E 017°53'513.9
2017-Apr-26 15:00N 36°06' E 017°59'2513.7
2017-Apr-26 13:10N 36°07' E 018°30'713.9
2017-Apr-26 12:38N 36°08' E 018°39'21810.7
2017-Apr-25 16:13N 37°21' E 022°55'613.4
2017-Apr-25 15:45N 37°27' E 022°50'8 0.6
2017-Apr-25 04:08N 37°34' E 022°47'3 8.3
2017-Apr-25 03:46N 37°31' E 022°47'412.8
2017-Apr-25 03:26N 37°27' E 022°50'713.0
2017-Apr-25 02:54N 37°21' E 022°55'513.1
2017-Apr-25 02:30N 37°17' E 022°58'813.6
2017-Apr-25 01:54N 37°11' E 023°05'613.4
2017-Apr-25 01:27N 37°09' E 023°12'613.3
2017-Apr-25 01:00N 37°10' E 023°19'713.1
2017-Apr-25 00:30N 37°11' E 023°27'812.8
2017-Apr-24 23:52N 37°15' E 023°36'912.6
2017-Apr-24 23:08N 37°24' E 023°40'213.2
2017-Apr-24 23:00N 37°25' E 023°41'713.1
2017-Apr-24 22:30N 37°32' E 023°41'613.1
2017-Apr-24 22:00N 37°38' E 023°42'612.7
2017-Apr-24 21:30N 37°44' E 023°39'612.5
2017-Apr-24 21:00N 37°50' E 023°37'611.8
2017-Apr-24 20:31N 37°56' E 023°37'1 1.4
2017-Apr-24 19:58N 37°56' E 023°38'0 0.0
2017-Apr-24 19:28N 37°56' E 023°38'0 0.0
2017-Apr-24 18:58N 37°56' E 023°38'0 0.0
2017-Apr-24 18:28N 37°56' E 023°38'0 0.0
2017-Apr-24 17:58N 37°56' E 023°38'0 0.0
2017-Apr-24 17:28N 37°56' E 023°38'0 0.0
2017-Apr-24 16:58N 37°56' E 023°38'0 0.0
2017-Apr-24 16:28N 37°56' E 023°38'0 0.0
2017-Apr-24 15:58N 37°56' E 023°38'0 0.0
2017-Apr-24 15:28N 37°56' E 023°38'0 0.0
2017-Apr-24 14:58N 37°56' E 023°38'0 0.0
2017-Apr-24 14:28N 37°56' E 023°38'0 0.0
2017-Apr-24 13:28N 37°56' E 023°38'0 0.0
2017-Apr-24 12:58N 37°56' E 023°38'0 0.0
2017-Apr-24 12:28N 37°56' E 023°38'0 0.0
2017-Apr-24 11:58N 37°56' E 023°38'0 0.0
2017-Apr-24 11:28N 37°56' E 023°38'0 0.0
2017-Apr-24 10:58N 37°56' E 023°38'0 0.0
2017-Apr-24 10:28N 37°56' E 023°38'0 0.0
2017-Apr-24 09:58N 37°56' E 023°38'0 0.0
2017-Apr-24 09:28N 37°56' E 023°38'0 0.0
2017-Apr-24 08:58N 37°56' E 023°38'0 0.0
2017-Apr-24 08:28N 37°56' E 023°38'0 0.0
2017-Apr-24 07:58N 37°56' E 023°38'0 0.0
2017-Apr-24 07:28N 37°56' E 023°38'0 0.0
2017-Apr-24 07:00N 37°56' E 023°38'0 0.0
2017-Apr-24 06:30N 37°56' E 023°38'0 0.0
2017-Apr-24 06:00N 37°56' E 023°38'0 0.0
2017-Apr-24 05:30N 37°56' E 023°38'0 0.0
2017-Apr-24 05:00N 37°56' E 023°38'0 0.0
2017-Apr-24 04:30N 37°56' E 023°38'0 0.0
2017-Apr-24 04:00N 37°56' E 023°38'1 1.2
2017-Apr-24 03:31N 37°56' E 023°37'2 3.6
2017-Apr-24 03:01N 37°55' E 023°37'611.7
2017-Apr-24 02:30N 37°50' E 023°40'714.7
2017-Apr-24 02:01N 37°43' E 023°44'816.3
2017-Apr-24 01:30N 37°35' E 023°47'816.8
2017-Apr-24 01:00N 37°27' E 023°51'917.4
2017-Apr-24 00:31N 37°19' E 023°55'1017.0
2017-Apr-23 23:57N 37°10' E 023°59'457 9.9
2017-Apr-22 01:37N 31°41' E 030°24'215.5
2017-Apr-22 01:30N 31°41' E 030°26'3015.6
2017-Apr-21 23:37N 31°46' E 031°00'415.7
2017-Apr-21 23:23N 31°46' E 031°04'3115.7
2017-Apr-21 21:25N 31°47' E 031°41'815.9
2017-Apr-21 20:55N 31°46' E 031°50'815.4
2017-Apr-21 20:26N 31°45' E 031°59'716.0
2017-Apr-21 20:00N 31°40' E 032°04'816.0
2017-Apr-21 19:30N 31°34' E 032°11'815.8
2017-Apr-21 19:00N 31°30' E 032°18'814.8
2017-Apr-21 18:28N 31°22' E 032°22'612.3
2017-Apr-21 18:00N 31°17' E 032°20'  

Dump ship's entire track history